Terminal Aerodrome Forecast
Issued by NWS Tuscon, AZ

Current Version | Previous Version | Text Only | Print | Product List | Glossary On
Versions: 1 2 3 4 5 6 7 8 9 10 11 12 13 14 15 16 17
000
FTUS45 KTWC 212300
TAFDUG
TAF
KDUG 212320Z 2200/2224 08007KT P6SM VCTS SCT050CB BKN100
     FM220400 VRB06KT P6SM SCT070 BKN140
     FM222000 30007KT P6SM VCSH SCT080=

USA.gov is the U.S. government's official web portal to all federal, state and local government web resources and services.